Time;durP1;ratioP1;P1;durP2;ratioP2;P2;SDS_P1;SDS_P2;PMS_P1;PMS_P2;Temp;Humidity;BMP_temperature;BMP_pressure;BME280_temperature;BME280_humidity;BME280_pressure;Samples;Min_cycle;Max_cycle;Signal;HPM_P1;HPM_P2
2022/05/03 00:00:36;;;;;;;;;;;;;;;18.94;59.97;98497.22;2080694;28;19929;-49
2022/05/03 00:01:40;;;;;;;;;;;;;;;18.96;59.97;98489.75;2079429;28;20153;-47
2022/05/03 00:02:45;;;;;;;;;;;;;;;18.96;59.95;98495.13;2083648;28;20067;-47
2022/05/03 00:03:50;;;;;;;;;;;;;;;18.93;59.99;98492.84;2083601;28;19936;-45
2022/05/03 00:04:57;;;;;;;;;;;;;;;18.94;59.98;98488.31;2083550;28;20310;-47
2022/05/03 00:06:04;;;;;;;;;;;;;;;18.91;60.27;98497.59;2092219;28;20680;-48
2022/05/03 00:07:13;;;;;;;;;;;;;;;18.94;60.05;98493.69;2091278;28;19924;-46
2022/05/03 00:08:20;;;;;;;;;;;;;;;18.94;60.44;98491.00;2091656;28;19928;-45
2022/05/03 00:09:24;;;;;;;;;;;;;;;18.96;60.14;98488.94;2090817;28;19925;-47
2022/05/03 00:10:32;;;;;;;;;;;;;;;18.97;59.85;98491.41;2087695;28;19940;-48
2022/05/03 00:11:33;;;;;;;;;;;;;;;18.94;60.13;98493.69;2089204;28;19977;-51
2022/05/03 00:12:35;;;;;;;;;;;;;;;18.94;60.19;98488.31;2086536;28;20334;-50
2022/05/03 00:13:38;;;;;;;;;;;;;;;18.94;60.13;98491.84;2090035;28;19931;-49
2022/05/03 00:14:42;;;;;;;;;;;;;;;18.95;60.09;98487.28;2090689;28;20296;-49
2022/05/03 00:15:46;;;;;;;;;;;;;;;18.95;59.78;98488.09;2092002;28;20907;-48
2022/05/03 00:16:48;;;;;;;;;;;;;;;18.94;60.12;98489.16;2082099;28;19929;-47
2022/05/03 00:17:51;;;;;;;;;;;;;;;18.95;59.76;98490.78;2084247;28;20323;-46
2022/05/03 00:18:52;;;;;;;;;;;;;;;18.96;60.02;98489.75;2081230;28;19929;-47
2022/05/03 00:19:54;;;;;;;;;;;;;;;18.96;60.05;98488.94;2083991;28;19929;-48
2022/05/03 00:20:55;;;;;;;;;;;;;;;18.94;59.88;98488.31;2090932;28;19925;-48
2022/05/03 00:21:57;;;;;;;;;;;;;;;18.95;59.96;98496.16;2090869;28;20103;-46
2022/05/03 00:22:58;;;;;;;;;;;;;;;18.94;59.90;98486.47;2091044;28;19928;-45
2022/05/03 00:24:00;;;;;;;;;;;;;;;18.94;59.94;98494.53;2091311;28;19933;-47
2022/05/03 00:25:02;;;;;;;;;;;;;;;18.95;59.71;98492.66;2092485;28;20466;-47
2022/05/03 00:26:02;;;;;;;;;;;;;;;18.92;59.89;98496.59;2088653;28;19936;-46
2022/05/03 00:27:04;;;;;;;;;;;;;;;18.94;59.89;98491.84;2089801;28;20366;-48
2022/05/03 00:28:05;;;;;;;;;;;;;;;18.95;59.87;98492.66;2089393;28;19925;-50
2022/05/03 00:29:07;;;;;;;;;;;;;;;18.95;59.71;98488.09;2088348;28;19925;-51
2022/05/03 00:30:08;;;;;;;;;;;;;;;18.95;60.14;98487.28;2092281;28;19932;-48
2022/05/03 00:31:11;;;;;;;;;;;;;;;18.96;60.11;98483.56;2090607;28;19944;-50
2022/05/03 00:32:12;;;;;;;;;;;;;;;18.93;59.67;98487.47;2089366;28;20454;-46
2022/05/03 00:33:15;;;;;;;;;;;;;;;18.95;60.00;98488.09;2091858;28;19933;-51
2022/05/03 00:34:16;;;;;;;;;;;;;;;18.95;59.77;98485.41;2091563;28;20031;-49
2022/05/03 00:35:18;;;;;;;;;;;;;;;18.95;59.85;98488.09;2089525;28;20007;-47
2022/05/03 00:36:19;;;;;;;;;;;;;;;18.96;59.63;98486.25;2089122;28;19925;-51
2022/05/03 00:37:20;;;;;;;;;;;;;;;18.95;59.81;98487.28;2091062;28;19924;-46
2022/05/03 00:38:21;;;;;;;;;;;;;;;18.96;59.89;98483.56;2091486;28;20355;-46
2022/05/03 00:39:22;;;;;;;;;;;;;;;18.94;60.07;98489.16;2091893;28;19939;-45
2022/05/03 00:40:24;;;;;;;;;;;;;;;18.94;59.83;98483.78;2090904;28;20446;-46
2022/05/03 00:41:30;;;;;;;;;;;;;;;18.93;60.02;98484.78;2090745;28;20583;-46
2022/05/03 00:42:39;;;;;;;;;;;;;;;18.95;59.80;98488.09;2088790;28;19970;-47
2022/05/03 00:43:47;;;;;;;;;;;;;;;18.93;59.98;98489.34;2089960;28;19932;-45
2022/05/03 00:45:00;;;;;;;;;;;;;;;18.94;59.88;98485.63;2090360;28;19928;-48
2022/05/03 00:46:03;;;;;;;;;;;;;;;18.94;60.07;98483.78;2084422;28;19954;-45
2022/05/03 00:47:08;;;;;;;;;;;;;;;18.95;59.88;98477.34;2089544;28;19975;-45
2022/05/03 00:48:17;;;;;;;;;;;;;;;18.95;59.80;98477.34;2089923;28;20475;-50
2022/05/03 00:49:21;;;;;;;;;;;;;;;18.94;59.74;98475.72;2089375;28;19944;-48
2022/05/03 00:50:30;;;;;;;;;;;;;;;18.95;59.87;98476.53;2093176;28;19936;-47
2022/05/03 00:51:39;;;;;;;;;;;;;;;18.92;59.70;98477.78;2090416;28;19936;-48
2022/05/03 00:52:42;;;;;;;;;;;;;;;18.94;59.72;98474.88;2090763;28;20024;-46
2022/05/03 00:53:55;;;;;;;;;;;;;;;18.90;59.85;98481.72;2082607;28;19940;-47
2022/05/03 00:55:05;;;;;;;;;;;;;;;18.92;59.78;98477.78;2088337;28;19968;-48
2022/05/03 00:56:22;;;;;;;;;;;;;;;18.93;59.97;98474.03;2090041;28;20058;-46
2022/05/03 00:57:27;;;;;;;;;;;;;;;18.90;59.85;98469.09;2078727;28;19932;-46
2022/05/03 00:58:38;;;;;;;;;;;;;;;18.91;59.64;98470.72;2082059;28;19928;-48
2022/05/03 00:59:46;;;;;;;;;;;;;;;18.89;59.89;98480.88;2088275;28;20430;-46
2022/05/03 01:00:54;;;;;;;;;;;;;;;18.92;59.87;98477.78;2090991;28;19929;-46
2022/05/03 01:01:57;;;;;;;;;;;;;;;18.91;59.88;98476.09;2089616;28;19924;-48
2022/05/03 01:03:07;;;;;;;;;;;;;;;18.89;59.90;98475.50;2090949;28;20509;-49
2022/05/03 01:04:11;;;;;;;;;;;;;;;18.92;59.70;98482.34;2090177;28;19990;-46
2022/05/03 01:05:17;;;;;;;;;;;;;;;18.89;59.89;98472.00;2089541;28;19933;-45
2022/05/03 01:06:21;;;;;;;;;;;;;;;18.88;59.78;98476.53;2091750;28;19931;-47
2022/05/03 01:07:27;;;;;;;;;;;;;;;18.90;59.57;98465.59;2091329;28;20019;-45
2022/05/03 01:08:31;;;;;;;;;;;;;;;18.90;59.75;98474.47;2091254;28;19925;-45
2022/05/03 01:09:35;;;;;;;;;;;;;;;18.87;59.82;98469.50;2088360;28;20670;-47
2022/05/03 01:10:42;;;;;;;;;;;;;;;18.89;59.69;98464.75;2089410;28;19935;-48
2022/05/03 01:11:46;;;;;;;;;;;;;;;18.89;59.96;98467.44;2090277;28;19925;-50
2022/05/03 01:12:57;;;;;;;;;;;;;;;18.91;59.56;98476.09;2088674;28;20921;-49
2022/05/03 01:14:00;;;;;;;;;;;;;;;18.88;59.87;98473.84;2088557;28;19981;-46
2022/05/03 01:15:07;;;;;;;;;;;;;;;18.86;59.55;98477.78;2090472;28;19925;-46
2022/05/03 01:16:10;;;;;;;;;;;;;;;18.86;59.75;98467.88;2089290;28;19964;-46
2022/05/03 01:17:15;;;;;;;;;;;;;;;18.91;59.83;98476.09;2090225;28;19978;-48
2022/05/03 01:18:24;;;;;;;;;;;;;;;18.91;59.53;98476.09;2090193;28;20023;-46
2022/05/03 01:19:34;;;;;;;;;;;;;;;18.89;59.81;98466.63;2090937;28;19925;-46
2022/05/03 01:20:41;;;;;;;;;;;;;;;18.89;59.59;98472.00;2087897;28;19924;-49
2022/05/03 01:21:56;;;;;;;;;;;;;;;18.91;59.62;98464.53;2088885;28;19939;-45
2022/05/03 01:23:17;;;;;;;;;;;;;;;18.89;59.88;98467.44;2087944;28;20402;-45
2022/05/03 01:24:32;;;;;;;;;;;;;;;18.85;59.70;98474.25;2082912;28;20034;-48
2022/05/03 01:25:53;;;;;;;;;;;;;;;18.90;59.72;98469.09;2088856;28;19924;-47
2022/05/03 01:27:10;;;;;;;;;;;;;;;18.88;59.64;98473.84;2083868;28;19935;-51
2022/05/03 01:28:18;;;;;;;;;;;;;;;18.90;59.69;98469.09;2079661;28;19925;-48
2022/05/03 01:29:31;;;;;;;;;;;;;;;18.89;59.77;98472.00;2091260;28;19986;-46
2022/05/03 01:30:31;;;;;;;;;;;;;;;18.87;59.52;98471.38;2089514;28;19986;-46
2022/05/03 01:31:33;;;;;;;;;;;;;;;18.89;59.57;98472.00;2088288;28;19937;-46
2022/05/03 01:32:34;;;;;;;;;;;;;;;18.89;59.73;98466.63;2090412;28;20413;-47
2022/05/03 01:33:39;;;;;;;;;;;;;;;18.88;59.92;98473.84;2091914;28;20002;-48
2022/05/03 01:34:40;;;;;;;;;;;;;;;18.88;59.51;98470.34;2088333;28;19932;-47
2022/05/03 01:35:43;;;;;;;;;;;;;;;18.87;59.78;98464.13;2089762;28;19978;-49
2022/05/03 01:36:56;;;;;;;;;;;;;;;18.89;59.74;98463.94;2089237;28;19948;-47
2022/05/03 01:38:16;;;;;;;;;;;;;;;18.89;59.72;98461.25;2089154;28;19978;-49
2022/05/03 01:39:24;;;;;;;;;;;;;;;18.86;59.71;98470.56;2089897;28;20690;-48
2022/05/03 01:40:32;;;;;;;;;;;;;;;18.88;59.70;98460.41;2091408;28;19991;-45
2022/05/03 01:41:36;;;;;;;;;;;;;;;18.87;59.46;98464.13;2086482;28;20087;-48
2022/05/03 01:42:51;;;;;;;;;;;;;;;18.86;59.50;98467.88;2088449;28;19935;-48
2022/05/03 01:43:56;;;;;;;;;;;;;;;18.85;59.54;98458.16;2090261;28;19929;-51
2022/05/03 01:45:03;;;;;;;;;;;;;;;18.86;59.62;98461.66;2088930;28;20378;-48
2022/05/03 01:46:05;;;;;;;;;;;;;;;18.84;59.49;98458.38;2088697;28;20844;-47
2022/05/03 01:47:14;;;;;;;;;;;;;;;18.86;59.54;98458.97;2088137;28;19931;-46
2022/05/03 01:48:21;;;;;;;;;;;;;;;18.84;59.83;98466.44;2087644;28;19925;-45
2022/05/03 01:50:53;;;;;;;;;;;;;;;18.87;59.49;98458.78;2088496;28;19928;-50
2022/05/03 01:52:08;;;;;;;;;;;;;;;18.86;59.55;98467.03;2080102;28;19928;-46
2022/05/03 01:53:14;;;;;;;;;;;;;;;18.85;59.62;98460.00;2082623;28;19926;-47
2022/05/03 01:54:24;;;;;;;;;;;;;;;18.86;59.51;98462.50;2089406;28;19986;-48
2022/05/03 01:55:36;;;;;;;;;;;;;;;18.84;59.61;98459.19;2088126;28;20273;-50
2022/05/03 01:56:45;;;;;;;;;;;;;;;18.83;59.44;98470.13;2088583;28;20019;-46
2022/05/03 01:57:54;;;;;;;;;;;;;;;18.85;59.67;98460.00;2088790;28;19932;-46
2022/05/03 01:59:05;;;;;;;;;;;;;;;18.82;59.47;98466.63;2087270;28;19933;-49
2022/05/03 02:00:08;;;;;;;;;;;;;;;18.83;59.49;98467.44;2089982;28;20429;-49
2022/05/03 02:01:15;;;;;;;;;;;;;;;18.84;59.53;98453.00;2090288;28;19932;-48
2022/05/03 02:02:21;;;;;;;;;;;;;;;18.85;59.67;98466.19;2091308;28;19971;-48
2022/05/03 02:03:27;;;;;;;;;;;;;;;18.83;59.71;98457.53;2090956;28;19925;-46
2022/05/03 02:04:43;;;;;;;;;;;;;;;18.82;59.67;98460.44;2090986;28;19925;-50
2022/05/03 02:05:55;;;;;;;;;;;;;;;18.82;59.66;98452.38;2078529;28;19928;-49
2022/05/03 02:07:03;;;;;;;;;;;;;;;18.81;59.52;98462.28;2088681;28;19928;-45
2022/05/03 02:08:05;;;;;;;;;;;;;;;18.82;59.52;98455.88;2088755;28;19929;-46
2022/05/03 02:09:06;;;;;;;;;;;;;;;18.81;59.49;98461.47;2088937;28;20524;-49
2022/05/03 02:10:11;;;;;;;;;;;;;;;18.80;59.57;98457.94;2089435;28;20023;-48
2022/05/03 02:11:22;;;;;;;;;;;;;;;18.81;59.84;98464.16;2089203;28;20299;-48
2022/05/03 02:12:25;;;;;;;;;;;;;;;18.77;59.66;98471.78;2088898;28;20305;-48
2022/05/03 02:14:43;;;;;;;;;;;;;;;18.82;59.64;98465.81;2087087;28;19929;-47
2022/05/03 02:15:02;;;;;;;;;;;;;;;18.83;59.52;98462.06;2090103;28;19924;-49
2022/05/03 02:16:08;;;;;;;;;;;;;;;18.84;59.67;98463.75;2091087;28;20618;-48
2022/05/03 02:17:13;;;;;;;;;;;;;;;18.80;59.58;98468.69;2091018;28;19932;-51
2022/05/03 02:18:21;;;;;;;;;;;;;;;18.77;59.80;98461.03;2087558;28;19943;-46
2022/05/03 02:19:32;;;;;;;;;;;;;;;18.75;59.46;98465.81;2090975;28;20012;-50
2022/05/03 02:20:53;;;;;;;;;;;;;;;18.76;60.04;98467.47;2088646;28;19940;-48
2022/05/03 02:22:02;;;;;;;;;;;;;;;18.75;60.01;98466.66;2087558;28;19932;-46
2022/05/03 02:23:23;;;;;;;;;;;;;;;18.76;59.88;98462.09;2087842;28;20479;-46
2022/05/03 02:24:27;;;;;;;;;;;;;;;18.80;59.71;98457.94;2089059;28;19944;-50
2022/05/03 02:25:37;;;;;;;;;;;;;;;18.77;59.69;98462.91;2088325;28;19933;-49
2022/05/03 02:26:41;;;;;;;;;;;;;;;18.76;59.62;98456.72;2088309;28;20288;-48
2022/05/03 02:27:46;;;;;;;;;;;;;;;18.78;59.85;98459.19;2087165;28;19977;-46
2022/05/03 02:28:52;;;;;;;;;;;;;;;18.78;59.69;98464.56;2087814;28;19932;-50
2022/05/03 02:29:53;;;;;;;;;;;;;;;18.75;59.81;98455.06;2089428;28;19931;-48
2022/05/03 02:30:55;;;;;;;;;;;;;;;18.78;59.76;98459.19;2087518;28;19952;-47
2022/05/03 02:32:01;;;;;;;;;;;;;;;18.77;59.75;98461.03;2088729;28;20727;-45
2022/05/03 02:33:05;;;;;;;;;;;;;;;18.75;59.80;98460.44;2083549;28;19960;-47
2022/05/03 02:34:14;;;;;;;;;;;;;;;18.74;59.72;98454.22;2087366;28;19929;-47
2022/05/03 02:35:20;;;;;;;;;;;;;;;18.75;59.44;98455.06;2088172;28;19936;-45
2022/05/03 02:36:24;;;;;;;;;;;;;;;18.74;59.96;98453.41;2085466;28;19999;-48
2022/05/03 02:37:32;;;;;;;;;;;;;;;18.77;59.77;98462.91;2088110;28;19928;-47
2022/05/03 02:38:37;;;;;;;;;;;;;;;18.74;59.94;98458.78;2089809;28;20555;-47
2022/05/03 02:39:41;;;;;;;;;;;;;;;18.75;59.67;98460.44;2079324;28;19929;-46
2022/05/03 02:40:44;;;;;;;;;;;;;;;18.75;59.65;98457.75;2085954;28;19932;-48
2022/05/03 02:41:46;;;;;;;;;;;;;;;18.78;59.74;98462.72;2080630;28;19932;-46
2022/05/03 02:42:51;;;;;;;;;;;;;;;18.77;59.67;98458.34;2084533;28;19944;-46
2022/05/03 02:43:53;;;;;;;;;;;;;;;18.79;59.67;98450.91;2083515;28;19928;-50
2022/05/03 02:44:55;;;;;;;;;;;;;;;18.77;59.43;98447.63;2088134;28;20444;-47
2022/05/03 02:45:58;;;;;;;;;;;;;;;18.77;59.70;98452.16;2083732;28;19933;-47
2022/05/03 02:47:04;;;;;;;;;;;;;;;18.74;59.82;98450.72;2088522;28;20019;-49
2022/05/03 02:48:13;;;;;;;;;;;;;;;18.76;59.78;98445.97;2087914;28;19928;-46
2022/05/03 02:49:18;;;;;;;;;;;;;;;18.79;59.87;98460.84;2086880;28;20410;-48
2022/05/03 02:50:21;;;;;;;;;;;;;;;18.76;59.47;98456.72;2086166;28;19991;-46
2022/05/03 02:51:26;;;;;;;;;;;;;;;18.76;59.70;98445.97;2087193;28;20020;-45
2022/05/03 02:52:32;;;;;;;;;;;;;;;18.73;59.58;98441.00;2088240;28;19932;-47
2022/05/03 02:53:40;;;;;;;;;;;;;;;18.74;59.67;98448.84;2082315;28;19959;-46
2022/05/03 02:54:49;;;;;;;;;;;;;;;18.76;59.60;98451.34;2086875;28;19925;-48
2022/05/03 02:55:52;;;;;;;;;;;;;;;18.75;59.62;98449.69;2081102;28;20016;-46
2022/05/03 02:56:59;;;;;;;;;;;;;;;18.73;59.77;98457.09;2085292;28;20012;-46
2022/05/03 02:58:05;;;;;;;;;;;;;;;18.73;59.54;98454.41;2085476;28;19936;-44
2022/05/03 02:59:18;;;;;;;;;;;;;;;18.73;59.37;98446.34;2086564;28;19928;-44
2022/05/03 03:01:50;;;;;;;;;;;;;;;18.70;59.85;98452.16;2086229;28;19928;-45
2022/05/03 03:02:59;;;;;;;;;;;;;;;18.71;59.57;98449.25;2084864;28;19982;-46
2022/05/03 03:04:05;;;;;;;;;;;;;;;18.72;59.77;98447.38;2075492;28;19948;-47
2022/05/03 03:05:06;;;;;;;;;;;;;;;18.73;59.81;98446.34;2078692;28;20011;-46
2022/05/03 03:06:12;;;;;;;;;;;;;;;18.67;59.66;98450.72;2077598;28;19976;-48
2022/05/03 03:07:16;;;;;;;;;;;;;;;18.66;59.94;98437.47;2078511;28;19955;-47
2022/05/03 03:08:20;;;;;;;;;;;;;;;18.68;59.82;98444.28;2078552;28;20445;-47
2022/05/03 03:09:24;;;;;;;;;;;;;;;18.70;59.65;98444.09;2084001;28;20465;-45
2022/05/03 03:10:32;;;;;;;;;;;;;;;18.69;59.59;98445.97;2081094;28;19936;-47
2022/05/03 03:11:40;;;;;;;;;;;;;;;18.71;59.68;98443.03;2084282;28;20624;-46
2022/05/03 03:12:45;;;;;;;;;;;;;;;18.68;59.65;98443.47;2083016;28;19929;-45
2022/05/03 03:13:51;;;;;;;;;;;;;;;18.69;59.75;98451.34;2088374;28;20661;-48
2022/05/03 03:14:56;;;;;;;;;;;;;;;18.70;59.80;98449.47;2088393;28;19935;-46
2022/05/03 03:15:57;;;;;;;;;;;;;;;18.70;59.63;98446.78;2085553;28;19925;-47
2022/05/03 03:17:03;;;;;;;;;;;;;;;18.68;59.98;98448.84;2087382;28;19929;-46
2022/05/03 03:18:10;;;;;;;;;;;;;;;18.70;59.71;98444.09;2085877;28;19946;-48
2022/05/03 03:19:27;;;;;;;;;;;;;;;18.70;59.55;98441.41;2082927;28;20418;-45
2022/05/03 03:20:29;;;;;;;;;;;;;;;18.72;59.46;98436.63;2084404;28;19931;-45
2022/05/03 03:21:30;;;;;;;;;;;;;;;18.72;59.56;98437.47;2087632;28;20329;-45
2022/05/03 03:22:35;;;;;;;;;;;;;;;18.70;59.65;98442.22;2084415;28;20756;-48
2022/05/03 03:23:39;;;;;;;;;;;;;;;18.69;59.35;98431.69;2085511;28;19932;-47
2022/05/03 03:24:40;;;;;;;;;;;;;;;18.67;59.55;98437.28;2086318;28;20946;-47
2022/05/03 03:25:43;;;;;;;;;;;;;;;18.70;59.85;98436.03;2086054;28;19961;-47
2022/05/03 03:26:46;;;;;;;;;;;;;;;18.70;59.81;98441.41;2087289;28;20551;-48
2022/05/03 03:27:48;;;;;;;;;;;;;;;18.69;59.90;98442.41;2086053;28;19928;-46
2022/05/03 03:28:50;;;;;;;;;;;;;;;18.65;59.71;98443.88;2087085;28;19936;-46
2022/05/03 03:29:55;;;;;;;;;;;;;;;18.65;59.88;98439.34;2088096;28;19939;-46
2022/05/03 03:30:59;;;;;;;;;;;;;;;18.65;60.10;98444.72;2089115;28;19983;-47
2022/05/03 03:32:00;;;;;;;;;;;;;;;18.67;59.92;98444.50;2084833;28;19929;-47
2022/05/03 03:33:02;;;;;;;;;;;;;;;18.68;59.81;98448.84;2086465;28;20256;-47
2022/05/03 03:34:04;;;;;;;;;;;;;;;18.66;59.87;98443.66;2081519;28;20375;-44
2022/05/03 03:35:06;;;;;;;;;;;;;;;18.67;59.52;98444.50;2087635;28;20845;-47
2022/05/03 03:36:07;;;;;;;;;;;;;;;18.68;59.81;98438.09;2084440;28;19929;-47
2022/05/03 03:37:08;;;;;;;;;;;;;;;18.68;59.66;98443.47;2086957;28;20561;-46
2022/05/03 03:38:11;;;;;;;;;;;;;;;18.65;59.50;98441.19;2084467;28;20058;-45
2022/05/03 03:39:12;;;;;;;;;;;;;;;18.66;59.79;98440.97;2084698;28;19981;-46
2022/05/03 03:40:14;;;;;;;;;;;;;;;18.66;59.88;98440.16;2088997;28;20342;-46
2022/05/03 03:41:15;;;;;;;;;;;;;;;18.66;59.84;98440.97;2082702;28;20009;-47
2022/05/03 03:42:16;;;;;;;;;;;;;;;18.66;60.06;98445.53;2087662;28;19932;-47
2022/05/03 03:43:18;;;;;;;;;;;;;;;18.65;59.73;98439.34;2091783;28;19924;-45
2022/05/03 03:44:18;;;;;;;;;;;;;;;18.62;59.94;98444.31;2084431;28;19925;-45
2022/05/03 03:45:21;;;;;;;;;;;;;;;18.61;59.90;98437.25;2088114;28;19924;-45
2022/05/03 03:46:22;;;;;;;;;;;;;;;18.62;59.88;98436.25;2085897;28;19939;-46
2022/05/03 03:47:24;;;;;;;;;;;;;;;18.63;59.88;98433.34;2088565;28;19933;-46
2022/05/03 03:48:24;;;;;;;;;;;;;;;18.66;59.90;98434.78;2087960;28;19928;-47
2022/05/03 03:49:27;;;;;;;;;;;;;;;18.63;59.77;98435.19;2085289;28;19925;-46
2022/05/03 03:50:29;;;;;;;;;;;;;;;18.64;59.84;98440.38;2085165;28;19929;-45
2022/05/03 03:51:31;;;;;;;;;;;;;;;18.64;59.60;98440.38;2083668;28;19940;-49
2022/05/03 03:52:32;;;;;;;;;;;;;;;18.66;59.83;98437.47;2084781;28;19936;-48
2022/05/03 03:53:34;;;;;;;;;;;;;;;18.67;60.04;98444.50;2084580;28;19932;-47
2022/05/03 03:54:35;;;;;;;;;;;;;;;18.66;59.55;98435.59;2088499;28;19928;-47
2022/05/03 03:55:37;;;;;;;;;;;;;;;18.65;59.79;98439.34;2084503;28;19929;-47
2022/05/03 03:56:38;;;;;;;;;;;;;;;18.62;59.91;98438.94;2083803;28;19925;-45
2022/05/03 03:57:40;;;;;;;;;;;;;;;18.64;59.94;98445.75;2083623;28;19928;-46
2022/05/03 03:58:40;;;;;;;;;;;;;;;18.63;59.91;98440.56;2085746;28;19943;-47
2022/05/03 03:59:42;;;;;;;;;;;;;;;18.63;59.50;98445.94;2088592;28;19955;-46
2022/05/03 04:00:44;;;;;;;;;;;;;;;18.64;59.76;98442.25;2087884;28;20030;-46
2022/05/03 04:01:45;;;;;;;;;;;;;;;18.64;59.90;98442.25;2072106;28;20637;-45
2022/05/03 04:02:47;;;;;;;;;;;;;;;18.64;59.82;98443.06;2079264;28;19925;-46
2022/05/03 04:03:48;;;;;;;;;;;;;;;18.65;59.71;98438.50;2084197;28;19925;-47
2022/05/03 04:04:52;;;;;;;;;;;;;;;18.65;59.45;98443.88;2084242;28;19932;-46
2022/05/03 04:05:52;;;;;;;;;;;;;;;18.65;59.76;98444.72;2085180;28;19954;-46
2022/05/03 04:06:54;;;;;;;;;;;;;;;18.63;59.56;98448.63;2088561;28;19971;-46
2022/05/03 04:07:55;;;;;;;;;;;;;;;18.62;59.85;98447.00;2083403;28;20028;-44
2022/05/03 04:08:56;;;;;;;;;;;;;;;18.62;59.63;98444.31;2087900;28;19974;-45
2022/05/03 04:09:57;;;;;;;;;;;;;;;18.61;59.84;98448.84;2084676;28;19978;-46
2022/05/03 04:10:58;;;;;;;;;;;;;;;18.63;59.84;98445.94;2082251;28;19929;-47
2022/05/03 04:12:01;;;;;;;;;;;;;;;18.62;59.65;98453.19;2080146;28;19929;-47
2022/05/03 04:13:01;;;;;;;;;;;;;;;18.64;59.88;98448.44;2080903;28;19941;-46
2022/05/03 04:14:03;;;;;;;;;;;;;;;18.64;59.87;98447.63;2080490;28;19928;-45
2022/05/03 04:15:05;;;;;;;;;;;;;;;18.62;59.58;98447.81;2087104;28;19947;-45
2022/05/03 04:16:06;;;;;;;;;;;;;;;18.63;59.80;98443.25;2084440;28;19925;-45
2022/05/03 04:17:07;;;;;;;;;;;;;;;18.63;59.67;98446.78;2088503;28;19932;-45
2022/05/03 04:18:08;;;;;;;;;;;;;;;18.63;59.65;98454.00;2085664;28;19958;-45
2022/05/03 04:19:12;;;;;;;;;;;;;;;18.61;59.73;98454.22;2089130;28;20456;-46
2022/05/03 04:20:16;;;;;;;;;;;;;;;18.58;59.93;98459.16;2086625;28;19933;-47
2022/05/03 04:21:17;;;;;;;;;;;;;;;18.59;59.73;98455.47;2086845;28;19932;-44
2022/05/03 04:22:26;;;;;;;;;;;;;;;18.59;59.87;98460.84;2087998;28;19925;-45
2022/05/03 04:23:26;;;;;;;;;;;;;;;18.59;59.84;98455.47;2085608;28;19940;-45
2022/05/03 04:24:28;;;;;;;;;;;;;;;18.61;59.55;98461.44;2086049;28;19971;-48
2022/05/03 04:25:28;;;;;;;;;;;;;;;18.60;59.71;98457.94;2084840;28;20725;-45
2022/05/03 04:26:30;;;;;;;;;;;;;;;18.59;59.79;98455.47;2083686;28;19929;-47
2022/05/03 04:27:30;;;;;;;;;;;;;;;18.61;59.76;98453.38;2081710;28;19952;-47
2022/05/03 04:28:32;;;;;;;;;;;;;;;18.62;59.86;98458.56;2082979;28;20309;-45
2022/05/03 04:29:33;;;;;;;;;;;;;;;18.61;59.79;98456.06;2081961;28;19928;-46
2022/05/03 04:30:34;;;;;;;;;;;;;;;18.60;59.78;98444.50;2085668;28;19925;-47
2022/05/03 04:31:35;;;;;;;;;;;;;;;18.59;59.89;98453.59;2088195;28;19931;-48
2022/05/03 04:32:37;;;;;;;;;;;;;;;18.59;59.65;98458.97;2084526;28;19932;-50
2022/05/03 04:33:37;;;;;;;;;;;;;;;18.59;59.57;98458.16;2089348;28;20383;-46
2022/05/03 04:34:39;;;;;;;;;;;;;;;18.61;59.58;98461.44;2087187;28;19931;-47
2022/05/03 04:35:41;;;;;;;;;;;;;;;18.62;59.76;98457.75;2088585;28;19928;-46
2022/05/03 04:36:42;;;;;;;;;;;;;;;18.59;59.78;98452.78;2084826;28;23830;-47
2022/05/03 04:37:43;;;;;;;;;;;;;;;18.60;59.81;98462.47;2086958;28;19935;-47
2022/05/03 04:38:44;;;;;;;;;;;;;;;18.60;59.59;98457.09;2087756;28;19978;-47
2022/05/03 04:39:46;;;;;;;;;;;;;;;18.60;59.58;98460.63;2083035;28;19929;-46
2022/05/03 04:40:46;;;;;;;;;;;;;;;18.59;59.58;98463.53;2083941;28;19982;-47
2022/05/03 04:41:48;;;;;;;;;;;;;;;18.56;59.82;98458.56;2084926;28;19933;-47
2022/05/03 04:42:48;;;;;;;;;;;;;;;18.57;59.98;98457.53;2084771;28;20705;-48
2022/05/03 04:43:50;;;;;;;;;;;;;;;18.59;59.82;98458.16;2093531;28;19925;-46
2022/05/03 04:44:51;;;;;;;;;;;;;;;18.57;59.78;98458.34;2090325;28;20019;-46
2022/05/03 04:45:53;;;;;;;;;;;;;;;18.56;59.90;98456.72;2089670;28;20375;-50
2022/05/03 04:46:54;;;;;;;;;;;;;;;18.57;59.93;98458.34;2086003;28;19932;-46
2022/05/03 04:47:55;;;;;;;;;;;;;;;18.59;59.98;98460.84;2089342;28;19943;-46
2022/05/03 04:48:56;;;;;;;;;;;;;;;18.56;59.84;98462.09;2088454;28;19925;-44
2022/05/03 04:49:57;;;;;;;;;;;;;;;18.53;60.11;98460.63;2085760;28;23337;-45
2022/05/03 04:50:59;;;;;;;;;;;;;;;18.56;59.61;98466.63;2084854;28;20492;-44
2022/05/03 04:52:01;;;;;;;;;;;;;;;18.53;59.78;98460.63;2087760;28;19958;-44
2022/05/03 04:53:02;;;;;;;;;;;;;;;18.56;59.67;98463.94;2088034;28;20636;-46
2022/05/03 04:54:03;;;;;;;;;;;;;;;18.55;59.75;98463.09;2088784;28;19925;-48
2022/05/03 04:55:05;;;;;;;;;;;;;;;18.56;59.72;98459.41;2088494;28;19924;-45
2022/05/03 04:56:06;;;;;;;;;;;;;;;18.55;59.78;98465.78;2090011;28;19925;-48
2022/05/03 04:57:09;;;;;;;;;;;;;;;18.58;59.69;98462.69;2081751;28;19943;-45
2022/05/03 04:58:09;;;;;;;;;;;;;;;18.58;59.83;98464.53;2087157;28;20403;-47
2022/05/03 04:59:11;;;;;;;;;;;;;;;18.58;59.57;98467.22;2088763;28;19929;-46
2022/05/03 05:00:12;;;;;;;;;;;;;;;18.56;59.59;98467.44;2088058;28;19929;-47
2022/05/03 05:01:13;;;;;;;;;;;;;;;18.54;59.87;98469.50;2084929;28;20070;-47
2022/05/03 05:02:14;;;;;;;;;;;;;;;18.54;60.09;98467.66;2085944;28;19985;-47
2022/05/03 05:03:15;;;;;;;;;;;;;;;18.56;59.99;98466.63;2085991;28;19994;-47
2022/05/03 05:04:16;;;;;;;;;;;;;;;18.57;59.74;98468.28;2088339;28;22226;-46
2022/05/03 05:05:17;;;;;;;;;;;;;;;18.56;59.99;98467.44;2089579;28;19929;-46
2022/05/03 05:06:19;;;;;;;;;;;;;;;18.54;60.01;98459.59;2086644;28;19932;-44
2022/05/03 05:07:21;;;;;;;;;;;;;;;18.53;59.70;98468.69;2075629;28;21192;-46
2022/05/03 05:08:21;;;;;;;;;;;;;;;18.55;59.96;98468.47;2085936;28;20357;-44
2022/05/03 05:09:23;;;;;;;;;;;;;;;18.54;59.71;98467.66;2086561;28;20024;-46
2022/05/03 05:10:24;;;;;;;;;;;;;;;18.55;59.57;98476.53;2088651;28;20383;-44
2022/05/03 05:11:25;;;;;;;;;;;;;;;18.54;59.88;98470.34;2086789;28;19925;-45
2022/05/03 05:12:26;;;;;;;;;;;;;;;18.57;59.62;98470.97;2086453;28;20375;-46
2022/05/03 05:13:28;;;;;;;;;;;;;;;18.55;59.76;98473.84;2083352;28;20016;-45
2022/05/03 05:14:29;;;;;;;;;;;;;;;18.51;59.60;98473.44;2088553;28;19925;-44
2022/05/03 05:15:31;;;;;;;;;;;;;;;18.54;59.84;98473.03;2088492;28;20368;-46
2022/05/03 05:16:31;;;;;;;;;;;;;;;18.54;59.54;98473.03;2087012;28;19939;-46
2022/05/03 05:17:33;;;;;;;;;;;;;;;18.54;59.70;98478.38;2089813;28;21098;-45
2022/05/03 05:18:35;;;;;;;;;;;;;;;18.53;59.74;98476.75;2085793;28;19925;-49
2022/05/03 05:19:35;;;;;;;;;;;;;;;18.53;59.96;98474.06;2087702;28;20829;-46
2022/05/03 05:20:37;;;;;;;;;;;;;;;18.51;59.85;98473.44;2088117;28;19933;-47
2022/05/03 05:21:40;;;;;;;;;;;;;;;18.51;59.92;98476.13;2088250;28;19925;-46
2022/05/03 05:22:42;;;;;;;;;;;;;;;18.52;60.00;98475.06;2086617;28;19986;-47
2022/05/03 05:23:44;;;;;;;;;;;;;;;18.54;59.72;98477.56;2086617;28;20019;-47
2022/05/03 05:24:45;;;;;;;;;;;;;;;18.53;59.62;98479.44;2088369;28;20007;-45
2022/05/03 05:25:47;;;;;;;;;;;;;;;18.52;59.87;98480.44;2088766;28;21026;-47
2022/05/03 05:26:48;;;;;;;;;;;;;;;18.48;59.90;98473.03;2083488;28;20010;-46
2022/05/03 05:27:49;;;;;;;;;;;;;;;18.51;59.78;98478.81;2088255;28;20043;-46
2022/05/03 05:28:50;;;;;;;;;;;;;;;18.53;59.85;98474.06;2086753;28;20398;-45
2022/05/03 05:29:51;;;;;;;;;;;;;;;18.52;59.90;98477.75;2086433;28;19937;-47
2022/05/03 05:30:53;;;;;;;;;;;;;;;18.51;59.88;98481.50;2086548;28;20291;-46
2022/05/03 05:31:53;;;;;;;;;;;;;;;18.52;59.72;98485.81;2079876;28;19929;-44
2022/05/03 05:32:55;;;;;;;;;;;;;;;18.52;59.85;98483.13;2081990;28;19931;-44
2022/05/03 05:33:55;;;;;;;;;;;;;;;18.49;59.89;98482.72;2093993;28;20019;-45
2022/05/03 05:34:56;;;;;;;;;;;;;;;18.51;59.87;98483.34;2089728;28;19959;-47
2022/05/03 05:35:58;;;;;;;;;;;;;;;18.54;59.78;98486.44;2092160;28;19985;-46
2022/05/03 05:37:00;;;;;;;;;;;;;;;18.52;59.89;98491.19;2090813;28;20024;-47
2022/05/03 05:38:01;;;;;;;;;;;;;;;18.51;59.84;98486.88;2087636;28;19929;-45